createdAt,value
2024-05-09T00:00:49.769Z,1022.23
2024-05-09T00:01:49.748Z,1022.20
2024-05-09T00:02:49.694Z,1022.19
2024-05-09T00:03:49.747Z,1022.16
2024-05-09T00:04:49.805Z,1022.17
2024-05-09T00:05:49.698Z,1022.16
2024-05-09T00:06:49.681Z,1022.17
2024-05-09T00:07:49.678Z,1022.16
2024-05-09T00:08:49.692Z,1022.19
2024-05-09T00:09:49.656Z,1022.17
2024-05-09T00:10:49.780Z,1022.19
2024-05-09T00:11:49.775Z,1022.18
2024-05-09T00:12:49.652Z,1022.17
2024-05-09T00:13:49.695Z,1022.18
2024-05-09T00:14:49.640Z,1022.13
2024-05-09T00:15:49.643Z,1022.16
2024-05-09T00:16:49.654Z,1022.13
2024-05-09T00:17:49.933Z,1022.15
2024-05-09T00:18:49.751Z,1022.15
2024-05-09T00:19:49.643Z,1022.15
2024-05-09T00:20:49.700Z,1022.18
2024-05-09T00:21:49.616Z,1022.16
2024-05-09T00:22:49.639Z,1022.16
2024-05-09T00:23:49.609Z,1022.16
2024-05-09T00:24:49.603Z,1022.16
2024-05-09T00:25:49.612Z,1022.16
2024-05-09T00:26:49.596Z,1022.15
2024-05-09T00:27:49.591Z,1022.14
2024-05-09T00:28:49.599Z,1022.14
2024-05-09T00:29:49.591Z,1022.12
2024-05-09T00:30:49.592Z,1022.13
2024-05-09T00:31:49.753Z,1022.10
2024-05-09T00:32:49.673Z,1022.10
2024-05-09T00:33:49.692Z,1022.10
2024-05-09T00:34:49.613Z,1022.13
2024-05-09T00:35:49.571Z,1022.13
2024-05-09T00:36:49.554Z,1022.16
2024-05-09T00:37:49.577Z,1022.17
2024-05-09T00:38:49.550Z,1022.15
2024-05-09T00:39:49.539Z,1022.12
2024-05-09T00:40:49.610Z,1022.16
2024-05-09T00:41:49.596Z,1022.13
2024-05-09T00:42:49.542Z,1022.15
2024-05-09T00:43:49.630Z,1022.13
2024-05-09T00:44:49.530Z,1022.13
2024-05-09T00:45:49.534Z,1022.12
2024-05-09T00:46:49.555Z,1022.10
2024-05-09T00:47:49.760Z,1022.12
2024-05-09T00:48:49.596Z,1022.11
2024-05-09T00:49:49.578Z,1022.11
2024-05-09T00:50:49.598Z,1022.10
2024-05-09T00:51:49.509Z,1022.11
2024-05-09T00:52:49.525Z,1022.11
2024-05-09T00:53:49.499Z,1022.07
2024-05-09T00:54:49.489Z,1022.12
2024-05-09T00:55:49.503Z,1022.13
2024-05-09T00:56:49.486Z,1022.11
2024-05-09T00:57:49.474Z,1022.11
2024-05-09T00:58:49.495Z,1022.07
2024-05-09T00:59:49.464Z,1022.11
2024-05-09T01:00:56.590Z,1022.08
2024-05-09T01:01:49.570Z,1022.07
2024-05-09T01:02:49.600Z,1022.09
2024-05-09T01:03:51.306Z,1022.09
2024-05-09T01:04:49.726Z,1022.07
2024-05-09T01:05:56.632Z,1022.04
2024-05-09T01:06:49.447Z,1022.02
2024-05-09T01:07:49.435Z,1022.04
2024-05-09T01:08:49.437Z,1022.02
2024-05-09T01:09:49.419Z,1022.03
2024-05-09T01:10:49.558Z,1022.01
2024-05-09T01:11:49.542Z,1022.02
2024-05-09T01:12:49.421Z,1022.02
2024-05-09T01:13:49.450Z,1022.01
2024-05-09T01:14:49.399Z,1022.01
2024-05-09T01:15:49.399Z,1022.02
2024-05-09T01:16:49.456Z,1022.03
2024-05-09T01:17:49.615Z,1021.97
2024-05-09T01:18:49.478Z,1021.97
2024-05-09T01:19:49.444Z,1022.04
2024-05-09T01:20:49.405Z,1022.01
2024-05-09T01:21:49.369Z,1022.04
2024-05-09T01:22:49.438Z,1022.02
2024-05-09T01:23:49.367Z,1022.01
2024-05-09T01:24:49.353Z,1021.99
2024-05-09T01:25:49.414Z,1022.01
2024-05-09T01:26:49.345Z,1022.03
2024-05-09T01:27:49.340Z,1022.01
2024-05-09T01:28:49.368Z,1022.01
2024-05-09T01:29:49.346Z,1022.02
2024-05-09T01:30:49.364Z,1021.98
2024-05-09T01:31:49.435Z,1021.99
2024-05-09T01:32:49.629Z,1021.99
2024-05-09T01:33:49.420Z,1022.01
2024-05-09T01:34:49.362Z,1022.00
2024-05-09T01:35:49.327Z,1021.98
2024-05-09T01:36:49.313Z,1021.99
2024-05-09T01:37:49.344Z,1021.96
2024-05-09T01:38:49.300Z,1021.97
2024-05-09T01:39:49.298Z,1021.98
2024-05-09T01:40:49.337Z,1021.98
2024-05-09T01:41:49.289Z,1021.99
2024-05-09T01:42:49.297Z,1021.97
2024-05-09T01:43:49.284Z,1021.99
2024-05-09T01:44:49.287Z,1021.99
2024-05-09T01:45:49.282Z,1021.99
2024-05-09T01:46:49.295Z,1021.98
2024-05-09T01:47:49.391Z,1021.98
2024-05-09T01:48:49.431Z,1021.95
2024-05-09T01:49:49.301Z,1021.95
2024-05-09T01:50:49.291Z,1022.00
2024-05-09T01:51:49.264Z,1021.97
2024-05-09T01:52:49.256Z,1021.98
2024-05-09T01:53:49.239Z,1021.96
2024-05-09T01:54:49.238Z,1021.95
2024-05-09T01:55:49.241Z,1021.95
2024-05-09T01:56:49.218Z,1021.94
2024-05-09T01:57:49.228Z,1021.95
2024-05-09T01:58:49.271Z,1021.97
2024-05-09T01:59:49.235Z,1021.96
2024-05-09T02:00:49.228Z,1021.92
2024-05-09T02:01:56.679Z,1021.95
2024-05-09T02:02:49.276Z,1021.96
2024-05-09T02:03:49.434Z,1021.94
2024-05-09T02:04:49.275Z,1021.95
2024-05-09T02:05:49.289Z,1021.95
2024-05-09T02:06:49.189Z,1021.96
2024-05-09T02:07:49.244Z,1021.96
2024-05-09T02:08:49.163Z,1021.96
2024-05-09T02:09:49.163Z,1021.97
2024-05-09T02:10:49.668Z,1021.94
2024-05-09T02:11:49.254Z,1022.03
2024-05-09T02:12:49.150Z,1022.01
2024-05-09T02:13:49.161Z,1022.00
2024-05-09T02:14:49.142Z,1021.99
2024-05-09T02:15:49.137Z,1022.02
2024-05-09T02:16:49.190Z,1022.02
2024-05-09T02:17:49.338Z,1022.00
2024-05-09T02:18:49.335Z,1022.04
2024-05-09T02:19:49.147Z,1022.02
2024-05-09T02:20:49.141Z,1021.99
2024-05-09T02:21:49.113Z,1022.04
2024-05-09T02:22:49.123Z,1021.98
2024-05-09T02:23:49.119Z,1021.99
2024-05-09T02:24:49.103Z,1021.98
2024-05-09T02:25:49.114Z,1021.99
2024-05-09T02:26:49.100Z,1021.97
2024-05-09T02:27:49.091Z,1021.95
2024-05-09T02:28:49.158Z,1021.94
2024-05-09T02:29:49.085Z,1021.98
2024-05-09T02:30:49.086Z,1021.98
2024-05-09T02:31:49.140Z,1021.99
2024-05-09T02:32:49.216Z,1021.99
2024-05-09T02:33:49.366Z,1022.00
2024-05-09T02:34:49.076Z,1021.99
2024-05-09T02:35:49.066Z,1022.00
2024-05-09T02:36:49.052Z,1021.96
2024-05-09T02:37:49.098Z,1021.95
2024-05-09T02:38:49.069Z,1021.96
2024-05-09T02:39:49.043Z,1021.95
2024-05-09T02:40:49.078Z,1021.91
2024-05-09T02:41:49.028Z,1021.91
2024-05-09T02:42:49.029Z,1021.89
2024-05-09T02:43:49.057Z,1021.91
2024-05-09T02:44:49.028Z,1021.90
2024-05-09T02:45:49.019Z,1021.90
2024-05-09T02:46:49.062Z,1021.87
2024-05-09T02:47:49.255Z,1021.84
2024-05-09T02:48:49.060Z,1021.87
2024-05-09T02:49:49.100Z,1021.87
2024-05-09T02:50:49.040Z,1021.85
2024-05-09T02:51:48.992Z,1021.81
2024-05-09T02:52:48.991Z,1021.84
2024-05-09T02:53:49.008Z,1021.85
2024-05-09T02:54:48.990Z,1021.81
2024-05-09T02:55:49.019Z,1021.83
2024-05-09T02:56:48.983Z,1021.81
2024-05-09T02:57:48.988Z,1021.82
2024-05-09T02:58:48.994Z,1021.80
2024-05-09T02:59:48.962Z,1021.88
2024-05-09T03:00:49.026Z,1021.83
2024-05-09T03:01:49.082Z,1021.80
2024-05-09T03:02:49.158Z,1021.79
2024-05-09T03:03:49.087Z,1021.84
2024-05-09T03:04:49.133Z,1021.83
2024-05-09T03:05:48.976Z,1021.84
2024-05-09T03:06:48.944Z,1021.85
2024-05-09T03:07:48.975Z,1021.86
2024-05-09T03:08:48.936Z,1021.83
2024-05-09T03:09:48.948Z,1021.80
2024-05-09T03:10:48.945Z,1021.81
2024-05-09T03:11:49.010Z,1021.81
2024-05-09T03:12:48.911Z,1021.83
2024-05-09T03:13:48.969Z,1021.84
2024-05-09T03:14:48.918Z,1021.79
2024-05-09T03:15:48.906Z,1021.78
2024-05-09T03:16:48.968Z,1021.79
2024-05-09T03:17:49.057Z,1021.79
2024-05-09T03:18:49.001Z,1021.78
2024-05-09T03:19:48.948Z,1021.81
2024-05-09T03:20:48.978Z,1021.78
2024-05-09T03:21:48.879Z,1021.79
2024-05-09T03:22:48.936Z,1021.81
2024-05-09T03:23:48.899Z,1021.77
2024-05-09T03:24:48.867Z,1021.80
2024-05-09T03:25:48.913Z,1021.77
2024-05-09T03:26:48.871Z,1021.78
2024-05-09T03:27:48.854Z,1021.76
2024-05-09T03:28:48.946Z,1021.78
2024-05-09T03:29:48.852Z,1021.77
2024-05-09T03:30:48.841Z,1021.80
2024-05-09T03:31:48.965Z,1021.77
2024-05-09T03:32:49.134Z,1021.77
2024-05-09T03:33:49.053Z,1021.79
2024-05-09T03:34:48.875Z,1021.76
2024-05-09T03:35:49.594Z,1021.78
2024-05-09T03:36:48.817Z,1021.76
2024-05-09T03:37:48.858Z,1021.74
2024-05-09T03:38:48.812Z,1021.76
2024-05-09T03:39:48.981Z,1021.75
2024-05-09T03:40:49.639Z,1021.77
2024-05-09T03:41:48.795Z,1021.75
2024-05-09T03:42:48.789Z,1021.73
2024-05-09T03:43:48.803Z,1021.70
2024-05-09T03:44:48.807Z,1021.73
2024-05-09T03:45:48.798Z,1021.70
2024-05-09T03:46:48.822Z,1021.70
2024-05-09T03:47:49.121Z,1021.68
2024-05-09T03:48:48.832Z,1021.67
2024-05-09T03:49:48.819Z,1021.68
2024-05-09T03:50:48.835Z,1021.66
2024-05-09T03:51:48.770Z,1021.70
2024-05-09T03:52:48.831Z,1021.68
2024-05-09T03:53:48.845Z,1021.67
2024-05-09T03:54:48.755Z,1021.68
2024-05-09T03:55:48.848Z,1021.64
2024-05-09T03:56:48.749Z,1021.67
2024-05-09T03:57:48.729Z,1021.71
2024-05-09T03:58:48.743Z,1021.71
2024-05-09T03:59:48.719Z,1021.69
2024-05-09T04:00:48.775Z,1021.67
2024-05-09T04:01:48.745Z,1021.66
2024-05-09T04:02:48.779Z,1021.63
2024-05-09T04:03:48.807Z,1021.66
2024-05-09T04:04:48.817Z,1021.62
2024-05-09T04:05:48.738Z,1021.60
2024-05-09T04:06:48.696Z,1021.57
2024-05-09T04:07:48.750Z,1021.58
2024-05-09T04:08:48.743Z,1021.59
2024-05-09T04:09:48.681Z,1021.61
2024-05-09T04:10:48.851Z,1021.65
2024-05-09T04:11:48.744Z,1021.62
2024-05-09T04:12:48.676Z,1021.66
2024-05-09T04:13:48.721Z,1021.65
2024-05-09T04:14:48.661Z,1021.65
2024-05-09T04:15:48.657Z,1021.65
2024-05-09T04:16:48.669Z,1021.60
2024-05-09T04:17:49.492Z,1021.61
2024-05-09T04:18:48.712Z,1021.66
2024-05-09T04:19:48.679Z,1021.65
2024-05-09T04:20:48.691Z,1021.64
2024-05-09T04:21:48.639Z,1021.65
2024-05-09T04:22:48.670Z,1021.60
2024-05-09T04:23:48.644Z,1021.65
2024-05-09T04:24:48.619Z,1021.66
2024-05-09T04:25:48.688Z,1021.67
2024-05-09T04:26:48.767Z,1021.67
2024-05-09T04:27:48.606Z,1021.66
2024-05-09T04:28:48.679Z,1021.64
2024-05-09T04:29:48.603Z,1021.69
2024-05-09T04:30:48.609Z,1021.68
2024-05-09T04:31:48.620Z,1021.69
2024-05-09T04:32:48.742Z,1021.70
2024-05-09T04:33:48.713Z,1021.70
2024-05-09T04:34:48.607Z,1021.75
2024-05-09T04:35:48.580Z,1021.73
2024-05-09T04:36:48.570Z,1021.72
2024-05-09T04:37:48.614Z,1021.73
2024-05-09T04:50:35.136Z,1021.79
2024-05-09T04:51:26.899Z,1021.75
2024-05-09T04:52:26.900Z,1021.77
2024-05-09T04:53:26.915Z,1021.75
2024-05-09T04:54:34.139Z,1021.74
2024-05-09T04:55:26.882Z,1021.75
2024-05-09T04:56:26.896Z,1021.74
2024-05-09T04:57:26.865Z,1021.72
2024-05-09T04:58:26.862Z,1021.72
2024-05-09T04:59:27.024Z,1021.73
2024-05-09T05:00:32.666Z,1021.74
2024-05-09T05:01:26.902Z,1021.75
2024-05-09T05:02:26.931Z,1021.75
2024-05-09T05:03:26.982Z,1021.75
2024-05-09T05:04:27.000Z,1021.77
2024-05-09T05:05:26.906Z,1021.77
2024-05-09T05:06:26.824Z,1021.76
2024-05-09T05:07:26.826Z,1021.77
2024-05-09T05:08:26.871Z,1021.77
2024-05-09T05:09:26.816Z,1021.80
2024-05-09T05:10:33.581Z,1021.78
2024-05-09T05:11:26.875Z,1021.81
2024-05-09T05:12:26.849Z,1021.78
2024-05-09T05:13:26.796Z,1021.78
2024-05-09T05:14:26.944Z,1021.76
2024-05-09T05:15:26.779Z,1021.77
2024-05-09T05:16:26.778Z,1021.78
2024-05-09T05:17:26.842Z,1021.78
2024-05-09T05:18:27.389Z,1021.81
2024-05-09T05:19:26.864Z,1021.81
2024-05-09T05:20:32.894Z,1021.81
2024-05-09T05:21:27.046Z,1021.83
2024-05-09T05:22:26.756Z,1021.79
2024-05-09T05:23:26.832Z,1021.77
2024-05-09T05:24:26.743Z,1021.76
2024-05-09T05:25:26.741Z,1021.74
2024-05-09T05:26:26.742Z,1021.76
2024-05-09T05:27:26.725Z,1021.78
2024-05-09T05:28:26.733Z,1021.72
2024-05-09T05:29:26.753Z,1021.76
2024-05-09T05:30:32.496Z,1021.75
2024-05-09T05:31:26.796Z,1021.72
2024-05-09T05:32:26.878Z,1021.73
2024-05-09T05:33:27.034Z,1021.73
2024-05-09T05:34:26.704Z,1021.76
2024-05-09T05:35:26.955Z,1021.72
2024-05-09T05:36:26.698Z,1021.74
2024-05-09T05:37:26.690Z,1021.74
2024-05-09T05:38:28.380Z,1021.74
2024-05-09T05:39:26.679Z,1021.75
2024-05-09T05:40:33.352Z,1021.75
2024-05-09T05:41:26.713Z,1021.76
2024-05-09T05:42:26.662Z,1021.77
2024-05-09T05:43:27.575Z,1021.79
2024-05-09T05:44:26.768Z,1021.73
2024-05-09T05:45:26.658Z,1021.76
2024-05-09T05:46:26.646Z,1021.80
2024-05-09T05:47:26.802Z,1021.78
2024-05-09T05:48:26.789Z,1021.80
2024-05-09T05:49:26.890Z,1021.82
2024-05-09T05:50:32.606Z,1021.78
2024-05-09T05:51:26.647Z,1021.82
2024-05-09T05:52:26.625Z,1021.83
2024-05-09T05:53:26.640Z,1021.82
2024-05-09T05:54:26.627Z,1021.84
2024-05-09T05:55:26.619Z,1021.88
2024-05-09T05:56:26.727Z,1021.88
2024-05-09T05:57:26.606Z,1021.90
2024-05-09T05:58:26.598Z,1021.92
2024-05-09T05:59:26.658Z,1021.91
2024-05-09T06:00:34.361Z,1021.90
2024-05-09T06:01:26.696Z,1021.94
2024-05-09T06:02:26.734Z,1021.92
2024-05-09T06:03:26.622Z,1021.92
2024-05-09T06:04:26.602Z,1021.98
2024-05-09T06:05:27.744Z,1021.96
2024-05-09T06:06:26.586Z,1021.99
2024-05-09T06:07:26.567Z,1021.98
2024-05-09T06:08:30.157Z,1021.97
2024-05-09T06:09:26.562Z,1021.95
2024-05-09T06:10:35.030Z,1021.96
2024-05-09T06:11:26.651Z,1021.94
2024-05-09T06:12:26.644Z,1021.95
2024-05-09T06:13:26.547Z,1021.95
2024-05-09T06:14:26.746Z,1021.93
2024-05-09T06:15:26.549Z,1021.93
2024-05-09T06:16:26.541Z,1021.91
2024-05-09T06:17:26.746Z,1021.91
2024-05-09T06:18:26.817Z,1021.90
2024-05-09T06:19:26.770Z,1021.91
2024-05-09T06:20:34.381Z,1021.87
2024-05-09T06:21:26.541Z,1021.89
2024-05-09T06:22:26.524Z,1021.87
2024-05-09T06:23:26.570Z,1021.91
2024-05-09T06:24:26.511Z,1021.87
2024-05-09T06:25:26.508Z,1021.88
2024-05-09T06:26:26.588Z,1021.84
2024-05-09T06:27:26.507Z,1021.84
2024-05-09T06:28:26.500Z,1021.85
2024-05-09T06:29:26.681Z,1021.88
2024-05-09T06:30:35.190Z,1021.85
2024-05-09T06:31:26.499Z,1021.90
2024-05-09T06:32:26.602Z,1021.86
2024-05-09T06:33:26.849Z,1021.90
2024-05-09T06:34:26.670Z,1021.91
2024-05-09T06:35:26.570Z,1021.85
2024-05-09T06:36:26.487Z,1021.88
2024-05-09T06:37:26.491Z,1021.88
2024-05-09T06:38:26.496Z,1021.88
2024-05-09T06:39:26.483Z,1021.83
2024-05-09T06:40:35.747Z,1021.84
2024-05-09T06:41:26.609Z,1021.86
2024-05-09T06:42:26.565Z,1021.88
2024-05-09T06:43:26.463Z,1021.84
2024-05-09T06:44:26.547Z,1021.85
2024-05-09T06:45:26.452Z,1021.84
2024-05-09T06:46:26.450Z,1021.84
2024-05-09T06:47:26.530Z,1021.88
2024-05-09T06:48:26.672Z,1021.87
2024-05-09T06:49:26.616Z,1021.87
2024-05-09T06:50:28.419Z,1021.87
2024-05-09T06:51:26.444Z,1021.88
2024-05-09T06:52:26.454Z,1021.83
2024-05-09T06:53:26.535Z,1021.80
2024-05-09T06:54:26.435Z,1021.83
2024-05-09T06:55:26.434Z,1021.83
2024-05-09T06:56:26.621Z,1021.82
2024-05-09T06:57:26.427Z,1021.84
2024-05-09T06:58:26.459Z,1021.81
2024-05-09T06:59:26.458Z,1021.82
2024-05-09T07:00:35.155Z,1021.81
2024-05-09T07:01:26.531Z,1021.81
2024-05-09T07:02:26.531Z,1021.80
2024-05-09T07:03:26.752Z,1021.82
2024-05-09T07:04:26.763Z,1021.78
2024-05-09T07:05:26.768Z,1021.81
2024-05-09T07:06:26.416Z,1021.80
2024-05-09T07:07:26.412Z,1021.79
2024-05-09T07:08:26.453Z,1021.84
2024-05-09T07:09:26.419Z,1021.83
2024-05-09T07:10:32.834Z,1021.87
2024-05-09T07:11:26.580Z,1021.86
2024-05-09T07:12:26.507Z,1021.85
2024-05-09T07:13:26.402Z,1021.83
2024-05-09T07:14:26.581Z,1021.82
2024-05-09T07:15:26.404Z,1021.83
2024-05-09T07:16:26.400Z,1021.82
2024-05-09T07:17:26.556Z,1021.88
2024-05-09T07:18:26.645Z,1021.85
2024-05-09T07:19:26.474Z,1021.85
2024-05-09T07:20:32.240Z,1021.88
2024-05-09T07:21:26.476Z,1021.84
2024-05-09T07:22:26.395Z,1021.84
2024-05-09T07:23:26.446Z,1021.85
2024-05-09T07:24:26.403Z,1021.84
2024-05-09T07:25:26.418Z,1021.84
2024-05-09T07:26:26.444Z,1021.84
2024-05-09T07:27:26.387Z,1021.85
2024-05-09T07:28:26.431Z,1021.83
2024-05-09T07:29:26.489Z,1021.82
2024-05-09T07:30:32.883Z,1021.85
2024-05-09T07:31:26.374Z,1021.85
2024-05-09T07:32:26.475Z,1021.85
2024-05-09T07:33:26.612Z,1021.84
2024-05-09T07:34:26.584Z,1021.83
2024-05-09T07:35:26.425Z,1021.82
2024-05-09T07:36:26.384Z,1021.80
2024-05-09T07:37:26.366Z,1021.80
2024-05-09T07:38:26.458Z,1021.81
2024-05-09T07:39:26.365Z,1021.80
2024-05-09T07:40:33.247Z,1021.79
2024-05-09T07:41:26.388Z,1021.80
2024-05-09T07:42:26.359Z,1021.85
2024-05-09T07:43:26.362Z,1021.83
2024-05-09T07:44:26.461Z,1021.84
2024-05-09T07:45:43.338Z,1021.86
2024-05-09T07:47:14.600Z,1021.86
2024-05-09T07:50:00.297Z,1021.88
2024-05-09T07:53:39.718Z,1021.86
2024-05-09T07:54:26.549Z,1021.83
2024-05-09T07:55:26.448Z,1021.85
2024-05-09T07:56:26.664Z,1021.85
2024-05-09T07:57:26.358Z,1021.84
2024-05-09T07:58:26.356Z,1021.83
2024-05-09T07:59:26.360Z,1021.81
2024-05-09T08:00:31.102Z,1021.83
2024-05-09T08:01:26.999Z,1021.81
2024-05-09T08:02:26.567Z,1021.82
2024-05-09T08:03:26.402Z,1021.82
2024-05-09T08:04:26.766Z,1021.78
2024-05-09T08:05:26.414Z,1021.79
2024-05-09T08:06:26.457Z,1021.76
2024-05-09T08:07:26.340Z,1021.74
2024-05-09T08:08:26.336Z,1021.75
2024-05-09T08:09:26.382Z,1021.71
2024-05-09T08:10:28.973Z,1021.74
2024-05-09T08:11:26.406Z,1021.72
2024-05-09T08:12:26.366Z,1021.73
2024-05-09T08:13:26.342Z,1021.72
2024-05-09T08:14:26.329Z,1021.74
2024-05-09T08:15:26.590Z,1021.73
2024-05-09T08:16:26.537Z,1021.74
2024-05-09T08:17:26.423Z,1021.75
2024-05-09T08:18:26.536Z,1021.72
2024-05-09T08:19:26.377Z,1021.76
2024-05-09T08:20:31.146Z,1021.74
2024-05-09T08:21:26.402Z,1021.75
2024-05-09T08:22:26.324Z,1021.74
2024-05-09T08:23:26.323Z,1021.73
2024-05-09T08:24:26.395Z,1021.75
2024-05-09T08:25:26.366Z,1021.72
2024-05-09T08:26:26.335Z,1021.71
2024-05-09T08:27:26.406Z,1021.71
2024-05-09T08:28:26.423Z,1021.72
2024-05-09T08:29:26.335Z,1021.68
2024-05-09T08:30:33.158Z,1021.66
2024-05-09T08:31:26.406Z,1021.64
2024-05-09T08:32:26.354Z,1021.65
2024-05-09T08:33:26.415Z,1021.66
2024-05-09T08:34:26.392Z,1021.63
2024-05-09T08:35:26.409Z,1021.64
2024-05-09T08:36:26.439Z,1021.60
2024-05-09T08:37:30.972Z,1021.58
2024-05-09T08:38:26.327Z,1021.60
2024-05-09T08:39:26.356Z,1021.58
2024-05-09T08:40:33.684Z,1021.58
2024-05-09T08:41:26.317Z,1021.59
2024-05-09T08:42:26.331Z,1021.59
2024-05-09T08:43:26.359Z,1021.56
2024-05-09T08:44:26.325Z,1021.55
2024-05-09T08:45:26.470Z,1021.56
2024-05-09T08:46:26.329Z,1021.53
2024-05-09T08:47:26.438Z,1021.56
2024-05-09T08:48:26.582Z,1021.53
2024-05-09T08:49:26.435Z,1021.60
2024-05-09T08:50:32.500Z,1021.56
2024-05-09T08:51:26.318Z,1021.59
2024-05-09T08:52:26.313Z,1021.57
2024-05-09T08:53:26.314Z,1021.57
2024-05-09T08:54:26.308Z,1021.57
2024-05-09T08:55:26.309Z,1021.55
2024-05-09T08:56:26.318Z,1021.54
2024-05-09T08:57:26.339Z,1021.57
2024-05-09T08:58:26.389Z,1021.54
2024-05-09T08:59:26.332Z,1021.54
2024-05-09T09:00:34.122Z,1021.58
2024-05-09T09:01:26.398Z,1021.57
2024-05-09T09:02:26.556Z,1021.57
2024-05-09T09:03:26.407Z,1021.56
2024-05-09T09:04:26.401Z,1021.54
2024-05-09T09:05:26.554Z,1021.53
2024-05-09T09:06:26.315Z,1021.52
2024-05-09T09:07:26.362Z,1021.56
2024-05-09T09:08:26.341Z,1021.57
2024-05-09T09:09:26.348Z,1021.54
2024-05-09T09:10:31.801Z,1021.55
2024-05-09T09:11:26.337Z,1021.58
2024-05-09T09:12:26.318Z,1021.54
2024-05-09T09:13:26.339Z,1021.55
2024-05-09T09:14:26.309Z,1021.55
2024-05-09T09:15:26.325Z,1021.52
2024-05-09T09:16:26.412Z,1021.50
2024-05-09T09:17:26.439Z,1021.52
2024-05-09T09:18:26.628Z,1021.55
2024-05-09T09:19:26.432Z,1021.55
2024-05-09T09:20:33.762Z,1021.53
2024-05-09T09:21:26.308Z,1021.55
2024-05-09T09:22:26.317Z,1021.52
2024-05-09T09:23:26.316Z,1021.52
2024-05-09T09:24:26.323Z,1021.53
2024-05-09T09:25:26.314Z,1021.50
2024-05-09T09:26:26.320Z,1021.52
2024-05-09T09:27:26.349Z,1021.51
2024-05-09T09:28:26.312Z,1021.50
2024-05-09T09:29:26.322Z,1021.49
2024-05-09T09:30:34.897Z,1021.47
2024-05-09T09:31:26.402Z,1021.52
2024-05-09T09:32:26.433Z,1021.52
2024-05-09T09:33:26.410Z,1021.55
2024-05-09T09:34:26.548Z,1021.45
2024-05-09T09:35:26.316Z,1021.52
2024-05-09T09:36:26.317Z,1021.48
2024-05-09T09:37:26.325Z,1021.48
2024-05-09T09:38:26.332Z,1021.51
2024-05-09T09:39:26.323Z,1021.50
2024-05-09T09:40:31.948Z,1021.49
2024-05-09T09:41:26.321Z,1021.49
2024-05-09T09:42:26.320Z,1021.47
2024-05-09T09:43:26.441Z,1021.50
2024-05-09T09:44:26.332Z,1021.48
2024-05-09T09:45:26.324Z,1021.46
2024-05-09T09:46:26.498Z,1021.49
2024-05-09T09:47:26.440Z,1021.50
2024-05-09T09:48:26.484Z,1021.49
2024-05-09T09:49:26.395Z,1021.44
2024-05-09T09:50:33.489Z,1021.46
2024-05-09T09:51:26.330Z,1021.44
2024-05-09T09:52:26.407Z,1021.45
2024-05-09T09:53:26.346Z,1021.44
2024-05-09T09:54:26.347Z,1021.42
2024-05-09T09:55:26.402Z,1021.43
2024-05-09T09:56:26.335Z,1021.44
2024-05-09T09:57:26.339Z,1021.45
2024-05-09T09:58:26.366Z,1021.46
2024-05-09T09:59:26.344Z,1021.45
2024-05-09T10:00:32.019Z,1021.46
2024-05-09T10:01:26.424Z,1021.43
2024-05-09T10:02:26.463Z,1021.43
2024-05-09T10:03:26.526Z,1021.37
2024-05-09T10:04:26.524Z,1021.41
2024-05-09T10:05:26.792Z,1021.41
2024-05-09T10:06:26.348Z,1021.38
2024-05-09T10:07:26.354Z,1021.36
2024-05-09T10:08:26.352Z,1021.35
2024-05-09T10:09:26.361Z,1021.37
2024-05-09T10:10:31.648Z,1021.33
2024-05-09T10:11:26.399Z,1021.33
2024-05-09T10:12:26.396Z,1021.31
2024-05-09T10:13:26.484Z,1021.31
2024-05-09T10:14:26.383Z,1021.31
2024-05-09T10:15:26.368Z,1021.28
2024-05-09T10:16:26.478Z,1021.29
2024-05-09T10:17:26.462Z,1021.28
2024-05-09T10:18:29.331Z,1021.29
2024-05-09T10:19:26.507Z,1021.28
2024-05-09T10:20:30.861Z,1021.27
2024-05-09T10:21:26.371Z,1021.26
2024-05-09T10:22:26.400Z,1021.25
2024-05-09T10:23:26.395Z,1021.24
2024-05-09T10:24:26.384Z,1021.22
2024-05-09T10:25:26.467Z,1021.13
2024-05-09T10:26:26.410Z,1021.17
2024-05-09T10:27:26.386Z,1021.12
2024-05-09T10:28:26.396Z,1021.14
2024-05-09T10:29:26.404Z,1021.14
2024-05-09T10:30:33.719Z,1021.12
2024-05-09T10:31:26.455Z,1021.10
2024-05-09T10:32:26.495Z,1021.12
2024-05-09T10:33:26.471Z,1021.11
2024-05-09T10:34:26.708Z,1021.12
2024-05-09T10:35:26.403Z,1021.09
2024-05-09T10:36:26.406Z,1021.08
2024-05-09T10:37:26.566Z,1021.10
2024-05-09T16:36:50.173Z,1018.27
2024-05-09T16:37:50.145Z,1018.26
2024-05-09T16:38:50.140Z,1018.28
2024-05-09T16:39:50.165Z,1018.25
2024-05-09T16:40:50.281Z,1018.26
2024-05-09T16:41:50.145Z,1018.24
2024-05-09T16:42:50.198Z,1018.27
2024-05-09T16:43:50.126Z,1018.26
2024-05-09T16:44:50.126Z,1018.24
2024-05-09T16:45:50.287Z,1018.30
2024-05-09T16:46:50.166Z,1018.29
2024-05-09T16:47:50.181Z,1018.26
2024-05-09T16:48:50.195Z,1018.28
2024-05-09T16:49:50.119Z,1018.29
2024-05-09T16:50:50.126Z,1018.31
2024-05-09T16:51:50.131Z,1018.28
2024-05-09T16:52:50.137Z,1018.29
2024-05-09T16:53:50.148Z,1018.31
2024-05-09T16:54:50.238Z,1018.28
2024-05-09T16:55:50.197Z,1018.29
2024-05-09T16:56:50.181Z,1018.29
2024-05-09T16:57:50.189Z,1018.27
2024-05-09T16:58:50.126Z,1018.24
2024-05-09T16:59:50.128Z,1018.28
2024-05-09T17:00:50.422Z,1018.25
2024-05-09T17:01:50.164Z,1018.26
2024-05-09T17:02:50.164Z,1018.24
2024-05-09T17:03:50.428Z,1018.24
2024-05-09T17:04:50.159Z,1018.27
2024-05-09T17:05:50.384Z,1018.26
2024-05-09T17:06:50.147Z,1018.28
2024-05-09T17:07:50.136Z,1018.27
2024-05-09T17:08:50.144Z,1018.29
2024-05-09T17:09:50.198Z,1018.26
2024-05-09T17:10:50.489Z,1018.31
2024-05-09T17:11:50.242Z,1018.29
2024-05-09T17:12:50.229Z,1018.31
2024-05-09T17:13:50.127Z,1018.30
2024-05-09T17:14:50.124Z,1018.29
2024-05-09T17:15:50.476Z,1018.31
2024-05-09T17:16:50.179Z,1018.30
2024-05-09T17:17:50.219Z,1018.27
2024-05-09T17:18:50.211Z,1018.31
2024-05-09T17:19:50.119Z,1018.31
2024-05-09T17:20:50.157Z,1018.29
2024-05-09T17:21:50.161Z,1018.30
2024-05-09T17:22:50.154Z,1018.29
2024-05-09T17:23:50.141Z,1018.31
2024-05-09T17:24:50.257Z,1018.31
2024-05-09T17:25:50.135Z,1018.32
2024-05-09T17:26:50.145Z,1018.34
2024-05-09T17:27:50.218Z,1018.31
2024-05-09T17:28:50.127Z,1018.32
2024-05-09T17:29:50.138Z,1018.31
2024-05-09T17:30:50.212Z,1018.33
2024-05-09T17:31:50.141Z,1018.32
2024-05-09T17:32:50.220Z,1018.32
2024-05-09T17:33:50.328Z,1018.29
2024-05-09T17:34:50.218Z,1018.32
2024-05-09T17:35:50.171Z,1018.30
2024-05-09T17:36:50.143Z,1018.27
2024-05-09T17:37:50.136Z,1018.28
2024-05-09T17:38:50.124Z,1018.26
2024-05-09T17:39:50.195Z,1018.27
2024-05-09T17:40:50.180Z,1018.23
2024-05-09T17:41:50.123Z,1018.24
2024-05-09T17:42:50.153Z,1018.25
2024-05-09T17:43:50.128Z,1018.25
2024-05-09T17:44:50.123Z,1018.26
2024-05-09T17:45:50.229Z,1018.24
2024-05-09T17:46:50.132Z,1018.23
2024-05-09T17:47:50.211Z,1018.27
2024-05-09T17:48:50.173Z,1018.24
2024-05-09T17:49:50.219Z,1018.21
2024-05-09T17:50:50.128Z,1018.22
2024-05-09T17:51:50.180Z,1018.22
2024-05-09T17:52:50.178Z,1018.23
2024-05-09T17:53:50.138Z,1018.22
2024-05-09T17:54:50.176Z,1018.17
2024-05-09T17:55:50.143Z,1018.20
2024-05-09T17:56:50.242Z,1018.20
2024-05-09T17:57:50.249Z,1018.25
2024-05-09T17:58:50.143Z,1018.27
2024-05-09T17:59:50.123Z,1018.22
2024-05-09T18:00:50.369Z,1018.23
2024-05-09T18:01:50.177Z,1018.25
2024-05-09T18:02:50.250Z,1018.25
2024-05-09T18:03:50.362Z,1018.22
2024-05-09T18:04:50.223Z,1018.29
2024-05-09T18:05:50.346Z,1018.28
2024-05-09T18:06:50.155Z,1018.29
2024-05-09T18:07:50.118Z,1018.30
2024-05-09T18:08:50.134Z,1018.31
2024-05-09T18:09:50.193Z,1018.30
2024-05-09T18:10:51.427Z,1018.33
2024-05-09T18:11:50.246Z,1018.32
2024-05-09T18:12:50.288Z,1018.31
2024-05-09T18:13:50.118Z,1018.33
2024-05-09T18:14:50.129Z,1018.33
2024-05-09T18:15:50.161Z,1018.29
2024-05-09T18:16:50.112Z,1018.32
2024-05-09T18:17:50.243Z,1018.33
2024-05-09T18:18:50.326Z,1018.27
2024-05-09T18:19:50.175Z,1018.29
2024-05-09T18:20:50.250Z,1018.27